TAM4536 SBEG-SBFZ
Flight info
| Callsign | TAM4536 |
|---|---|
| Flight time | N/A |
| Altitude | 33000 |
| Route | XOLOK DCT PUDVO UZ12 ANGUB/N0460F350 UZ12 ESDAB DCT FLZ |
| Aircraft | A321/M-SDE3FGHIRWY/LB1 |
Departure
| Time | 2026-04-30 13:01 |
|---|---|
| Airport | Eduardo Gomes International Airport (SBEG) |
Arrival
| Time | N/A |
|---|---|
| Airport | Pinto Martins International Airport (SBFZ) |
| Time | Latitude | Longitude | Altitude | Speed | Heading |
|---|---|---|---|---|---|
| 2026-04-30 12:39 | -3.03276 | -60.04581 | 268 ft | 0 kts | 357° |
| 2026-04-30 12:53 | -3.03288 | -60.04580 | 268 ft | 4 kts | 354° |
| 2026-04-30 12:53 | -3.03314 | -60.04576 | 268 ft | 4 kts | 343° |
| 2026-04-30 12:53 | -3.03339 | -60.04566 | 268 ft | 4 kts | 322° |
| 2026-04-30 12:53 | -3.03353 | -60.04548 | 268 ft | 3 kts | 269° |
| 2026-04-30 12:54 | -3.03353 | -60.04541 | 268 ft | 0 kts | 265° |
| 2026-04-30 12:56 | -3.03353 | -60.04550 | 268 ft | 2 kts | 265° |
| 2026-04-30 12:56 | -3.03355 | -60.04571 | 268 ft | 4 kts | 266° |
| 2026-04-30 12:56 | -3.03356 | -60.04605 | 268 ft | 6 kts | 269° |
| 2026-04-30 12:57 | -3.03354 | -60.04651 | 268 ft | 8 kts | 273° |
| 2026-04-30 12:57 | -3.03355 | -60.04709 | 268 ft | 9 kts | 263° |
| 2026-04-30 12:57 | -3.03376 | -60.04777 | 268 ft | 11 kts | 243° |
| 2026-04-30 12:57 | -3.03432 | -60.04846 | 268 ft | 14 kts | 221° |
| 2026-04-30 12:58 | -3.03520 | -60.04917 | 268 ft | 18 kts | 225° |
| 2026-04-30 12:58 | -3.03586 | -60.05026 | 268 ft | 18 kts | 252° |
| 2026-04-30 12:58 | -3.03620 | -60.05150 | 268 ft | 19 kts | 256° |
| 2026-04-30 12:58 | -3.03652 | -60.05275 | 268 ft | 19 kts | 256° |
| 2026-04-30 12:59 | -3.03680 | -60.05403 | 268 ft | 20 kts | 262° |
| 2026-04-30 12:59 | -3.03691 | -60.05571 | 268 ft | 28 kts | 269° |
| 2026-04-30 12:59 | -3.03692 | -60.05769 | 268 ft | 28 kts | 270° |
| 2026-04-30 12:59 | -3.03691 | -60.05965 | 268 ft | 28 kts | 270° |
| 2026-04-30 13:00 | -3.03707 | -60.06130 | 268 ft | 20 kts | 242° |
| 2026-04-30 13:00 | -3.03811 | -60.06167 | 269 ft | 16 kts | 166° |
| 2026-04-30 13:00 | -3.03859 | -60.06076 | 269 ft | 20 kts | 90° |
| 2026-04-30 13:00 | -3.03857 | -60.05734 | 268 ft | 83 kts | 90° |
| 2026-04-30 13:01 | -3.03858 | -60.04929 | 269 ft | 143 kts | 90° |
| 2026-04-30 13:01 | -3.03859 | -60.03810 | 472 ft | 172 kts | 89° |
| 2026-04-30 13:01 | -3.03850 | -60.02608 | 970 ft | 178 kts | 90° |
| 2026-04-30 13:01 | -3.03852 | -60.01293 | 1095 ft | 201 kts | 90° |
| 2026-04-30 13:02 | -3.03855 | -59.99824 | 1189 ft | 222 kts | 91° |
| 2026-04-30 13:02 | -3.03838 | -59.98186 | 1243 ft | 249 kts | 90° |
| 2026-04-30 13:02 | -3.03841 | -59.96435 | 1786 ft | 255 kts | 91° |
| 2026-04-30 13:02 | -3.03868 | -59.94658 | 2458 ft | 256 kts | 92° |
| 2026-04-30 13:03 | -3.03938 | -59.92865 | 3117 ft | 259 kts | 94° |
| 2026-04-30 13:03 | -3.04025 | -59.91048 | 3779 ft | 262 kts | 94° |
| 2026-04-30 13:03 | -3.04113 | -59.89220 | 4431 ft | 265 kts | 94° |
| 2026-04-30 13:03 | -3.04197 | -59.87382 | 5091 ft | 265 kts | 93° |
| 2026-04-30 13:04 | -3.04277 | -59.85533 | 5710 ft | 267 kts | 94° |
| 2026-04-30 13:04 | -3.04355 | -59.83668 | 6335 ft | 270 kts | 93° |
| 2026-04-30 13:04 | -3.04434 | -59.81789 | 6902 ft | 272 kts | 93° |
| 2026-04-30 13:04 | -3.04487 | -59.80535 | 7283 ft | 273 kts | 93° |
| 2026-04-30 13:05 | -3.04571 | -59.78629 | 7868 ft | 274 kts | 93° |
| 2026-04-30 13:05 | -3.04660 | -59.76715 | 8442 ft | 276 kts | 93° |
| 2026-04-30 13:05 | -3.04747 | -59.74790 | 9010 ft | 278 kts | 93° |
| 2026-04-30 13:06 | -3.04961 | -59.70258 | 10192 ft | 288 kts | 93° |
| 2026-04-30 13:06 | -3.05027 | -59.68874 | 10276 ft | 300 kts | 93° |
| 2026-04-30 13:06 | -3.05162 | -59.66001 | 10432 ft | 324 kts | 93° |
| 2026-04-30 13:06 | -3.05231 | -59.64453 | 10549 ft | 333 kts | 93° |
| 2026-04-30 13:07 | -3.05337 | -59.62111 | 10945 ft | 340 kts | 94° |
| 2026-04-30 13:07 | -3.05445 | -59.59737 | 11423 ft | 343 kts | 93° |
| 2026-04-30 13:07 | -3.05551 | -59.57375 | 11890 ft | 346 kts | 93° |
| 2026-04-30 13:07 | -3.05660 | -59.54964 | 12370 ft | 348 kts | 93° |
| 2026-04-30 13:08 | -3.05773 | -59.52534 | 12858 ft | 351 kts | 93° |
| 2026-04-30 13:08 | -3.05886 | -59.50083 | 13334 ft | 353 kts | 93° |
| 2026-04-30 13:08 | -3.05998 | -59.47619 | 13801 ft | 356 kts | 93° |
| 2026-04-30 13:08 | -3.06112 | -59.45138 | 14210 ft | 358 kts | 93° |
| 2026-04-30 13:09 | -3.06226 | -59.42641 | 14635 ft | 360 kts | 93° |
| 2026-04-30 13:09 | -3.06339 | -59.40130 | 15051 ft | 362 kts | 93° |
| 2026-04-30 13:09 | -3.06448 | -59.37602 | 15467 ft | 365 kts | 93° |
| 2026-04-30 13:09 | -3.06557 | -59.35058 | 15892 ft | 367 kts | 93° |
| 2026-04-30 13:10 | -3.06667 | -59.32501 | 16317 ft | 369 kts | 93° |
| 2026-04-30 13:10 | -3.06781 | -59.29926 | 16742 ft | 372 kts | 93° |
| 2026-04-30 13:10 | -3.06900 | -59.27341 | 17171 ft | 373 kts | 93° |
| 2026-04-30 13:10 | -3.07021 | -59.24738 | 17579 ft | 376 kts | 93° |
| 2026-04-30 13:11 | -3.07141 | -59.22118 | 18002 ft | 378 kts | 93° |
| 2026-04-30 13:11 | -3.07259 | -59.19480 | 18393 ft | 380 kts | 93° |
| 2026-04-30 13:11 | -3.07377 | -59.16827 | 18733 ft | 383 kts | 93° |
| 2026-04-30 13:11 | -3.07492 | -59.14162 | 19080 ft | 385 kts | 93° |
| 2026-04-30 13:12 | -3.07608 | -59.11518 | 19432 ft | 387 kts | 93° |
| 2026-04-30 13:12 | -3.07726 | -59.08823 | 19811 ft | 389 kts | 93° |
| 2026-04-30 13:12 | -3.07847 | -59.06113 | 20197 ft | 390 kts | 93° |
| 2026-04-30 13:13 | -3.08092 | -59.00659 | 20918 ft | 394 kts | 92° |
| 2026-04-30 13:13 | -3.08215 | -58.97915 | 21253 ft | 396 kts | 92° |
| 2026-04-30 13:13 | -3.08462 | -58.92385 | 21927 ft | 399 kts | 92° |
| 2026-04-30 13:14 | -3.08587 | -58.89603 | 22254 ft | 401 kts | 92° |
| 2026-04-30 13:14 | -3.08714 | -58.86801 | 22569 ft | 403 kts | 92° |
| 2026-04-30 13:14 | -3.08966 | -58.81171 | 23179 ft | 406 kts | 92° |
| 2026-04-30 13:15 | -3.09092 | -58.78341 | 23468 ft | 408 kts | 92° |
| 2026-04-30 13:15 | -3.09347 | -58.72681 | 23938 ft | 412 kts | 92° |
| 2026-04-30 13:15 | -3.09477 | -58.69794 | 24173 ft | 413 kts | 92° |
| 2026-04-30 13:16 | -3.09608 | -58.66908 | 24378 ft | 415 kts | 92° |
| 2026-04-30 13:16 | -3.09735 | -58.64039 | 24585 ft | 418 kts | 92° |
| 2026-04-30 13:16 | -3.09864 | -58.61129 | 24799 ft | 420 kts | 92° |
| 2026-04-30 13:17 | -3.10126 | -58.55263 | 25225 ft | 423 kts | 92° |
| 2026-04-30 13:17 | -3.10258 | -58.52313 | 25434 ft | 425 kts | 92° |
| 2026-04-30 13:17 | -3.10519 | -58.46372 | 25850 ft | 429 kts | 92° |
| 2026-04-30 13:18 | -3.10647 | -58.43384 | 26081 ft | 431 kts | 92° |
| 2026-04-30 13:18 | -3.10908 | -58.37400 | 26478 ft | 434 kts | 92° |
| 2026-04-30 13:18 | -3.11045 | -58.34372 | 26673 ft | 436 kts | 92° |
| 2026-04-30 13:19 | -3.11181 | -58.31337 | 26852 ft | 438 kts | 92° |
| 2026-04-30 13:19 | -3.11315 | -58.28288 | 27053 ft | 439 kts | 92° |
| 2026-04-30 13:19 | -3.11451 | -58.25227 | 27243 ft | 441 kts | 92° |
| 2026-04-30 13:19 | -3.11592 | -58.22148 | 27428 ft | 442 kts | 92° |
| 2026-04-30 13:20 | -3.11726 | -58.19072 | 27597 ft | 445 kts | 92° |
| 2026-04-30 13:20 | -3.11858 | -58.15969 | 27760 ft | 447 kts | 92° |
| 2026-04-30 13:20 | -3.11991 | -58.12852 | 27939 ft | 449 kts | 92° |
| 2026-04-30 13:20 | -3.12126 | -58.09765 | 28119 ft | 451 kts | 92° |
| 2026-04-30 13:21 | -3.12265 | -58.06625 | 28299 ft | 453 kts | 92° |
| 2026-04-30 13:21 | -3.12405 | -58.03472 | 28476 ft | 454 kts | 92° |
| 2026-04-30 13:21 | -3.12548 | -58.00301 | 28650 ft | 456 kts | 92° |
| 2026-04-30 13:22 | -3.12827 | -57.93950 | 28977 ft | 459 kts | 92° |
| 2026-04-30 13:22 | -3.12965 | -57.90748 | 29189 ft | 459 kts | 92° |
| 2026-04-30 13:22 | -3.13246 | -57.84355 | 29652 ft | 460 kts | 92° |
| 2026-04-30 13:23 | -3.13385 | -57.81153 | 29849 ft | 461 kts | 92° |
| 2026-04-30 13:23 | -3.13662 | -57.74726 | 30204 ft | 463 kts | 92° |
| 2026-04-30 13:24 | -3.13937 | -57.68336 | 30628 ft | 462 kts | 92° |
| 2026-04-30 13:24 | -3.14215 | -57.61888 | 31211 ft | 462 kts | 91° |
| 2026-04-30 13:25 | -3.14490 | -57.55503 | 31734 ft | 458 kts | 92° |
| 2026-04-30 13:25 | -3.14775 | -57.49124 | 32107 ft | 458 kts | 92° |
| 2026-04-30 13:26 | -3.15190 | -57.39547 | 32663 ft | 459 kts | 92° |
| 2026-04-30 13:26 | -3.15472 | -57.33176 | 32948 ft | 458 kts | 91° |
| 2026-04-30 13:28 | -3.16157 | -57.17351 | 32975 ft | 457 kts | 91° |
| 2026-04-30 13:28 | -3.16568 | -57.07829 | 32980 ft | 456 kts | 91° |
| 2026-04-30 13:29 | -3.17100 | -56.95136 | 32975 ft | 457 kts | 91° |
| 2026-04-30 13:31 | -3.17784 | -56.79278 | 32985 ft | 457 kts | 91° |
| 2026-04-30 13:32 | -3.18449 | -56.63393 | 32988 ft | 457 kts | 91° |
| 2026-04-30 13:33 | -3.18979 | -56.50763 | 32960 ft | 455 kts | 91° |
| 2026-04-30 13:34 | -3.19391 | -56.41243 | 32961 ft | 456 kts | 91° |
| 2026-04-30 13:35 | -3.19931 | -56.28597 | 32980 ft | 456 kts | 91° |
| 2026-04-30 13:36 | -3.20467 | -56.15931 | 32982 ft | 455 kts | 91° |
| 2026-04-30 13:36 | -3.20854 | -56.06441 | 32980 ft | 455 kts | 91° |
| 2026-04-30 13:37 | -3.21258 | -55.96932 | 32964 ft | 457 kts | 91° |
| 2026-04-30 13:38 | -3.21655 | -55.87424 | 32969 ft | 460 kts | 91° |
| 2026-04-30 13:39 | -3.22185 | -55.74654 | 32980 ft | 459 kts | 91° |
| 2026-04-30 13:40 | -3.22585 | -55.65078 | 32986 ft | 457 kts | 91° |
| 2026-04-30 13:40 | -3.22841 | -55.58719 | 32966 ft | 457 kts | 91° |
| 2026-04-30 13:41 | -3.23102 | -55.52373 | 32965 ft | 457 kts | 91° |
| 2026-04-30 13:41 | -3.23364 | -55.46020 | 32964 ft | 457 kts | 91° |
| 2026-04-30 13:42 | -3.23630 | -55.39687 | 32976 ft | 458 kts | 91° |
| 2026-04-30 13:42 | -3.24026 | -55.30149 | 32982 ft | 458 kts | 91° |
| 2026-04-30 13:43 | -3.24284 | -55.23763 | 32977 ft | 458 kts | 91° |
| 2026-04-30 13:43 | -3.24548 | -55.17402 | 32984 ft | 458 kts | 91° |
| 2026-04-30 13:44 | -3.24809 | -55.11042 | 32983 ft | 459 kts | 90° |
| 2026-04-30 13:44 | -3.25074 | -55.04650 | 32973 ft | 459 kts | 91° |
| 2026-04-30 13:45 | -3.25460 | -54.95116 | 32968 ft | 459 kts | 90° |
| 2026-04-30 13:46 | -3.25720 | -54.88739 | 32967 ft | 460 kts | 91° |
| 2026-04-30 13:46 | -3.25979 | -54.82340 | 32971 ft | 461 kts | 91° |
| 2026-04-30 13:47 | -3.26244 | -54.75922 | 32974 ft | 461 kts | 91° |
| 2026-04-30 13:47 | -3.26507 | -54.69514 | 32967 ft | 461 kts | 91° |
| 2026-04-30 13:48 | -3.26763 | -54.63093 | 32969 ft | 462 kts | 91° |
| 2026-04-30 13:48 | -3.27020 | -54.56682 | 32970 ft | 462 kts | 90° |
| 2026-04-30 13:49 | -3.27281 | -54.50265 | 32969 ft | 462 kts | 91° |
| 2026-04-30 13:49 | -3.27541 | -54.43844 | 32977 ft | 462 kts | 91° |
| 2026-04-30 13:50 | -3.27798 | -54.37427 | 32978 ft | 463 kts | 90° |
| 2026-04-30 13:50 | -3.28185 | -54.27772 | 32977 ft | 463 kts | 91° |
| 2026-04-30 13:51 | -3.28442 | -54.21366 | 32987 ft | 462 kts | 90° |
| 2026-04-30 13:51 | -3.28697 | -54.14951 | 32988 ft | 462 kts | 90° |
| 2026-04-30 13:52 | -3.28957 | -54.08519 | 32985 ft | 462 kts | 90° |
| 2026-04-30 13:52 | -3.29219 | -54.02090 | 32979 ft | 462 kts | 90° |
| 2026-04-30 13:53 | -3.29477 | -53.95660 | 32989 ft | 461 kts | 91° |
| 2026-04-30 13:53 | -3.29689 | -53.90336 | 32990 ft | 461 kts | 90° |
| 2026-04-30 13:54 | -3.29984 | -53.82849 | 32991 ft | 460 kts | 91° |
| 2026-04-30 13:54 | -3.30237 | -53.76490 | 32988 ft | 460 kts | 90° |
| 2026-04-30 13:55 | -3.30494 | -53.70087 | 32985 ft | 460 kts | 91° |
| 2026-04-30 13:55 | -3.30751 | -53.63693 | 32984 ft | 460 kts | 91° |
| 2026-04-30 13:56 | -3.31005 | -53.57296 | 32983 ft | 460 kts | 91° |
| 2026-04-30 13:56 | -3.31253 | -53.50920 | 32974 ft | 460 kts | 91° |
| 2026-04-30 13:57 | -3.31505 | -53.44495 | 32987 ft | 460 kts | 91° |
| 2026-04-30 13:57 | -3.31750 | -53.38148 | 32977 ft | 460 kts | 90° |
| 2026-04-30 13:58 | -3.32123 | -53.28549 | 32988 ft | 461 kts | 91° |
| 2026-04-30 13:59 | -3.32379 | -53.22123 | 32986 ft | 460 kts | 90° |
| 2026-04-30 13:59 | -3.32630 | -53.15753 | 32991 ft | 460 kts | 91° |
| 2026-04-30 14:00 | -3.32881 | -53.09351 | 32991 ft | 460 kts | 90° |
| 2026-04-30 14:00 | -3.33250 | -52.99758 | 32982 ft | 460 kts | 90° |
| 2026-04-30 14:01 | -3.33466 | -52.94404 | 32983 ft | 460 kts | 90° |
| 2026-04-30 14:01 | -3.33718 | -52.88038 | 32984 ft | 460 kts | 91° |
| 2026-04-30 14:02 | -3.33963 | -52.81642 | 32988 ft | 460 kts | 90° |
| 2026-04-30 14:02 | -3.34204 | -52.75223 | 32979 ft | 460 kts | 90° |
| 2026-04-30 14:03 | -3.34444 | -52.68851 | 32976 ft | 460 kts | 91° |
| 2026-04-30 14:03 | -3.34685 | -52.62441 | 32987 ft | 460 kts | 90° |
| 2026-04-30 14:04 | -3.34937 | -52.56061 | 32984 ft | 460 kts | 91° |
| 2026-04-30 14:04 | -3.35184 | -52.49684 | 32982 ft | 460 kts | 91° |
| 2026-04-30 14:05 | -3.35436 | -52.43274 | 32986 ft | 461 kts | 91° |
| 2026-04-30 14:05 | -3.35686 | -52.36832 | 32992 ft | 462 kts | 91° |
| 2026-04-30 14:06 | -3.36057 | -52.27257 | 32972 ft | 461 kts | 90° |
| 2026-04-30 14:07 | -3.36418 | -52.17640 | 32993 ft | 461 kts | 91° |
| 2026-04-30 14:08 | -3.36787 | -52.08030 | 32984 ft | 460 kts | 91° |
| 2026-04-30 14:08 | -3.37143 | -51.98415 | 32966 ft | 461 kts | 91° |
| 2026-04-30 14:09 | -3.37377 | -51.92003 | 32969 ft | 462 kts | 91° |
| 2026-04-30 14:10 | -3.37745 | -51.82385 | 32951 ft | 462 kts | 91° |
| 2026-04-30 14:10 | -3.37986 | -51.75956 | 32957 ft | 462 kts | 91° |
| 2026-04-30 14:11 | -3.38232 | -51.69523 | 32966 ft | 463 kts | 91° |
| 2026-04-30 14:11 | -3.38475 | -51.63083 | 32963 ft | 463 kts | 90° |
| 2026-04-30 14:12 | -3.38708 | -51.56646 | 32958 ft | 463 kts | 90° |
| 2026-04-30 14:12 | -3.38953 | -51.50253 | 32960 ft | 463 kts | 91° |
| 2026-04-30 14:13 | -3.39200 | -51.43774 | 32975 ft | 463 kts | 90° |
| 2026-04-30 14:13 | -3.39437 | -51.37341 | 32986 ft | 465 kts | 90° |
| 2026-04-30 14:14 | -3.39667 | -51.30861 | 32984 ft | 464 kts | 91° |
| 2026-04-30 14:14 | -3.39906 | -51.24422 | 32983 ft | 463 kts | 91° |
| 2026-04-30 14:15 | -3.40147 | -51.17972 | 32980 ft | 463 kts | 91° |
| 2026-04-30 14:15 | -3.40392 | -51.11539 | 32976 ft | 463 kts | 90° |
| 2026-04-30 14:16 | -3.40625 | -51.05125 | 32981 ft | 466 kts | 90° |
| 2026-04-30 14:16 | -3.40853 | -50.98671 | 32984 ft | 465 kts | 90° |
| 2026-04-30 14:17 | -3.41099 | -50.92226 | 32983 ft | 462 kts | 90° |
| 2026-04-30 14:17 | -3.41334 | -50.85809 | 32979 ft | 460 kts | 91° |
| 2026-04-30 14:18 | -3.41571 | -50.79395 | 32964 ft | 460 kts | 90° |
| 2026-04-30 14:18 | -3.41928 | -50.69787 | 32957 ft | 461 kts | 91° |
| 2026-04-30 14:19 | -3.42271 | -50.60136 | 32952 ft | 461 kts | 90° |
| 2026-04-30 14:20 | -3.42501 | -50.53731 | 32975 ft | 462 kts | 90° |
| 2026-04-30 14:20 | -3.42860 | -50.44105 | 32956 ft | 457 kts | 90° |
| 2026-04-30 14:21 | -3.43089 | -50.37752 | 32943 ft | 458 kts | 91° |
| 2026-04-30 14:22 | -3.43434 | -50.28183 | 33090 ft | 463 kts | 91° |
| 2026-04-30 14:22 | -3.43666 | -50.21734 | 33382 ft | 466 kts | 91° |
| 2026-04-30 14:22 | -3.43780 | -50.18484 | 33570 ft | 467 kts | 90° |
| 2026-04-30 14:23 | -3.44012 | -50.11957 | 33953 ft | 468 kts | 90° |
| 2026-04-30 14:23 | -3.44246 | -50.05485 | 34286 ft | 468 kts | 90° |
| 2026-04-30 14:24 | -3.44478 | -49.98965 | 34631 ft | 468 kts | 90° |
| 2026-04-30 14:24 | -3.44595 | -49.95713 | 34812 ft | 468 kts | 90° |
| 2026-04-30 14:25 | -3.44834 | -49.89176 | 34956 ft | 469 kts | 90° |
| 2026-04-30 14:25 | -3.45059 | -49.82692 | 34954 ft | 469 kts | 90° |
| 2026-04-30 14:26 | -3.45412 | -49.72894 | 34951 ft | 469 kts | 91° |
| 2026-04-30 14:27 | -3.45758 | -49.63101 | 34959 ft | 469 kts | 90° |
| 2026-04-30 14:27 | -3.45993 | -49.56604 | 34956 ft | 469 kts | 90° |
| 2026-04-30 14:28 | -3.46331 | -49.46830 | 34971 ft | 470 kts | 90° |
| 2026-04-30 14:28 | -3.46563 | -49.40282 | 34963 ft | 469 kts | 91° |
| 2026-04-30 14:29 | -3.46985 | -49.28312 | 34965 ft | 469 kts | 90° |
| 2026-04-30 14:31 | -3.47589 | -49.10931 | 34963 ft | 470 kts | 91° |
| 2026-04-30 14:31 | -3.47938 | -49.01104 | 34965 ft | 470 kts | 91° |
| 2026-04-30 14:32 | -3.48267 | -48.91321 | 34960 ft | 469 kts | 91° |
| 2026-04-30 14:33 | -3.48497 | -48.84782 | 34969 ft | 469 kts | 90° |
| 2026-04-30 14:33 | -3.48833 | -48.74989 | 34969 ft | 472 kts | 91° |
| 2026-04-30 14:34 | -3.49062 | -48.68422 | 34974 ft | 471 kts | 91° |
| 2026-04-30 14:34 | -3.49284 | -48.61862 | 34972 ft | 470 kts | 91° |
| 2026-04-30 14:35 | -3.49622 | -48.52098 | 34972 ft | 469 kts | 90° |
| 2026-04-30 14:36 | -3.49849 | -48.45565 | 34967 ft | 468 kts | 91° |
| 2026-04-30 14:36 | -3.50074 | -48.39071 | 34959 ft | 468 kts | 90° |
| 2026-04-30 14:37 | -3.50290 | -48.32553 | 34960 ft | 468 kts | 90° |
| 2026-04-30 14:37 | -3.50505 | -48.26040 | 34963 ft | 468 kts | 90° |
| 2026-04-30 14:38 | -3.50726 | -48.19533 | 34958 ft | 468 kts | 90° |
| 2026-04-30 14:38 | -3.50949 | -48.13014 | 34959 ft | 468 kts | 90° |
| 2026-04-30 14:39 | -3.51168 | -48.06545 | 34961 ft | 468 kts | 90° |
| 2026-04-30 14:39 | -3.51392 | -48.00010 | 34967 ft | 468 kts | 90° |
| 2026-04-30 14:40 | -3.51707 | -47.90272 | 34967 ft | 468 kts | 90° |
| 2026-04-30 14:40 | -3.51933 | -47.83762 | 34966 ft | 467 kts | 90° |
| 2026-04-30 14:41 | -3.52158 | -47.77255 | 34969 ft | 467 kts | 91° |
| 2026-04-30 14:41 | -3.52367 | -47.70760 | 34967 ft | 466 kts | 91° |
| 2026-04-30 14:42 | -3.52582 | -47.64306 | 34965 ft | 466 kts | 90° |
| 2026-04-30 14:42 | -3.52798 | -47.57830 | 34961 ft | 465 kts | 90° |
| 2026-04-30 14:43 | -3.53007 | -47.51339 | 34967 ft | 465 kts | 90° |
| 2026-04-30 14:43 | -3.53214 | -47.44912 | 34966 ft | 464 kts | 90° |
| 2026-04-30 14:44 | -3.53436 | -47.38441 | 34967 ft | 464 kts | 90° |
| 2026-04-30 14:44 | -3.53657 | -47.32011 | 34961 ft | 464 kts | 90° |
| 2026-04-30 14:45 | -3.53876 | -47.25547 | 34960 ft | 464 kts | 90° |
| 2026-04-30 14:45 | -3.54082 | -47.19085 | 34960 ft | 464 kts | 90° |
| 2026-04-30 14:46 | -3.54280 | -47.12624 | 34948 ft | 464 kts | 90° |
| 2026-04-30 14:46 | -3.54454 | -47.07249 | 34946 ft | 465 kts | 91° |
| 2026-04-30 14:47 | -3.54708 | -46.99713 | 34947 ft | 465 kts | 90° |
| 2026-04-30 14:47 | -3.54922 | -46.93225 | 34959 ft | 466 kts | 91° |
| 2026-04-30 14:48 | -3.55132 | -46.86765 | 34960 ft | 466 kts | 90° |
| 2026-04-30 14:48 | -3.55342 | -46.80266 | 34969 ft | 467 kts | 90° |
| 2026-04-30 14:49 | -3.55549 | -46.73755 | 34964 ft | 467 kts | 91° |
| 2026-04-30 14:49 | -3.55763 | -46.67255 | 34968 ft | 467 kts | 90° |
| 2026-04-30 14:50 | -3.56077 | -46.57538 | 34970 ft | 467 kts | 91° |
| 2026-04-30 14:51 | -3.56355 | -46.48873 | 34980 ft | 467 kts | 91° |
| 2026-04-30 14:52 | -3.56665 | -46.39122 | 34977 ft | 467 kts | 91° |
| 2026-04-30 14:52 | -3.56978 | -46.29387 | 34977 ft | 467 kts | 91° |
| 2026-04-30 14:53 | -3.57295 | -46.19648 | 34977 ft | 467 kts | 91° |
| 2026-04-30 14:54 | -3.57691 | -46.06716 | 34962 ft | 466 kts | 91° |
| 2026-04-30 14:55 | -3.57999 | -45.96987 | 34967 ft | 467 kts | 91° |
| 2026-04-30 14:56 | -3.58408 | -45.83970 | 34953 ft | 468 kts | 91° |
| 2026-04-30 14:57 | -3.58713 | -45.74202 | 34948 ft | 469 kts | 91° |
| 2026-04-30 14:58 | -3.59116 | -45.61170 | 34956 ft | 470 kts | 91° |
| 2026-04-30 14:58 | -3.59426 | -45.51317 | 34955 ft | 471 kts | 91° |
| 2026-04-30 15:00 | -3.59923 | -45.34966 | 34952 ft | 471 kts | 91° |
| 2026-04-30 15:01 | -3.60341 | -45.21851 | 34960 ft | 471 kts | 91° |
| 2026-04-30 15:01 | -3.60634 | -45.12026 | 34957 ft | 470 kts | 91° |
| 2026-04-30 15:02 | -3.60829 | -45.05482 | 34958 ft | 470 kts | 91° |
| 2026-04-30 15:03 | -3.61324 | -44.89171 | 34957 ft | 470 kts | 91° |
| 2026-04-30 15:04 | -3.61817 | -44.72836 | 34953 ft | 469 kts | 91° |
| 2026-04-30 15:06 | -3.62301 | -44.56523 | 34955 ft | 469 kts | 91° |
| 2026-04-30 15:07 | -3.62702 | -44.43482 | 34951 ft | 468 kts | 91° |
| 2026-04-30 15:08 | -3.63078 | -44.30464 | 34958 ft | 468 kts | 91° |
| 2026-04-30 15:09 | -3.63563 | -44.14199 | 34954 ft | 467 kts | 91° |
| 2026-04-30 15:10 | -3.63939 | -44.01245 | 34952 ft | 467 kts | 91° |
| 2026-04-30 15:11 | -3.64508 | -43.81753 | 34946 ft | 467 kts | 92° |
| 2026-04-30 15:13 | -3.64987 | -43.65504 | 34941 ft | 467 kts | 92° |
| 2026-04-30 15:14 | -3.65635 | -43.42819 | 34941 ft | 466 kts | 92° |
| 2026-04-30 15:17 | -3.66472 | -43.13647 | 34935 ft | 466 kts | 92° |
| 2026-04-30 15:19 | -3.67207 | -42.87759 | 34934 ft | 465 kts | 92° |